sensor_id;sensor_type;location;lat;lon;timestamp;P1;durP1;ratioP1;P2;durP2;ratioP2
76807;SDS011;65758;45.458;11.062;2023-02-03T00:00:05;14.90;;;9.40;;
76807;SDS011;65758;45.458;11.062;2023-02-03T00:02:40;14.60;;;9.20;;
76807;SDS011;65758;45.458;11.062;2023-02-03T00:05:25;16.90;;;10.20;;
76807;SDS011;65758;45.458;11.062;2023-02-03T00:07:53;18.30;;;9.60;;
76807;SDS011;65758;45.458;11.062;2023-02-03T00:10:19;15.80;;;10.00;;
76807;SDS011;65758;45.458;11.062;2023-02-03T00:12:50;15.10;;;10.50;;
76807;SDS011;65758;45.458;11.062;2023-02-03T00:15:21;17.20;;;10.20;;
76807;SDS011;65758;45.458;11.062;2023-02-03T00:17:48;15.20;;;9.80;;
76807;SDS011;65758;45.458;11.062;2023-02-03T00:20:15;18.80;;;9.70;;
76807;SDS011;65758;45.458;11.062;2023-02-03T00:25:08;14.20;;;7.70;;
76807;SDS011;65758;45.458;11.062;2023-02-03T00:27:35;14.60;;;8.30;;
76807;SDS011;65758;45.458;11.062;2023-02-03T00:30:02;14.50;;;9.00;;
76807;SDS011;65758;45.458;11.062;2023-02-03T00:32:29;18.40;;;10.30;;
76807;SDS011;65758;45.458;11.062;2023-02-03T00:34:55;19.70;;;11.90;;
76807;SDS011;65758;45.458;11.062;2023-02-03T00:37:22;20.20;;;11.80;;
76807;SDS011;65758;45.458;11.062;2023-02-03T00:39:48;22.30;;;12.60;;
76807;SDS011;65758;45.458;11.062;2023-02-03T00:42:15;24.90;;;12.60;;
76807;SDS011;65758;45.458;11.062;2023-02-03T00:44:42;20.40;;;11.70;;
76807;SDS011;65758;45.458;11.062;2023-02-03T00:47:09;19.90;;;11.30;;
76807;SDS011;65758;45.458;11.062;2023-02-03T00:49:35;22.30;;;12.20;;
76807;SDS011;65758;45.458;11.062;2023-02-03T00:52:02;21.40;;;12.50;;
76807;SDS011;65758;45.458;11.062;2023-02-03T00:54:29;20.90;;;12.40;;
76807;SDS011;65758;45.458;11.062;2023-02-03T00:56:58;21.70;;;13.20;;
76807;SDS011;65758;45.458;11.062;2023-02-03T00:59:25;21.60;;;12.30;;
76807;SDS011;65758;45.458;11.062;2023-02-03T01:01:52;22.00;;;12.70;;
76807;SDS011;65758;45.458;11.062;2023-02-03T01:04:19;20.90;;;13.30;;
76807;SDS011;65758;45.458;11.062;2023-02-03T01:06:45;21.70;;;13.10;;
76807;SDS011;65758;45.458;11.062;2023-02-03T01:09:12;19.90;;;13.60;;
76807;SDS011;65758;45.458;11.062;2023-02-03T01:11:38;20.00;;;12.60;;
76807;SDS011;65758;45.458;11.062;2023-02-03T01:14:06;21.20;;;12.50;;
76807;SDS011;65758;45.458;11.062;2023-02-03T01:16:34;25.10;;;13.50;;
76807;SDS011;65758;45.458;11.062;2023-02-03T01:19:03;23.60;;;14.00;;
76807;SDS011;65758;45.458;11.062;2023-02-03T01:21:31;25.30;;;14.10;;
76807;SDS011;65758;45.458;11.062;2023-02-03T01:23:58;20.80;;;12.10;;
76807;SDS011;65758;45.458;11.062;2023-02-03T01:26:26;26.50;;;15.00;;
76807;SDS011;65758;45.458;11.062;2023-02-03T01:28:54;26.00;;;14.30;;
76807;SDS011;65758;45.458;11.062;2023-02-03T01:31:23;25.60;;;13.50;;
76807;SDS011;65758;45.458;11.062;2023-02-03T01:33:55;26.10;;;13.80;;
76807;SDS011;65758;45.458;11.062;2023-02-03T01:36:23;24.30;;;14.50;;
76807;SDS011;65758;45.458;11.062;2023-02-03T01:38:52;23.40;;;14.20;;
76807;SDS011;65758;45.458;11.062;2023-02-03T01:41:21;23.20;;;14.10;;
76807;SDS011;65758;45.458;11.062;2023-02-03T01:43:51;26.80;;;15.30;;
76807;SDS011;65758;45.458;11.062;2023-02-03T01:46:24;25.70;;;14.90;;
76807;SDS011;65758;45.458;11.062;2023-02-03T01:51:35;29.20;;;16.50;;
76807;SDS011;65758;45.458;11.062;2023-02-03T01:54:06;28.30;;;16.70;;
76807;SDS011;65758;45.458;11.062;2023-02-03T01:56:38;34.50;;;16.50;;
76807;SDS011;65758;45.458;11.062;2023-02-03T01:59:08;33.70;;;18.20;;
76807;SDS011;65758;45.458;11.062;2023-02-03T02:01:36;34.50;;;18.00;;
76807;SDS011;65758;45.458;11.062;2023-02-03T02:04:03;32.30;;;18.50;;
76807;SDS011;65758;45.458;11.062;2023-02-03T02:10:38;30.70;;;16.70;;
76807;SDS011;65758;45.458;11.062;2023-02-03T02:13:05;29.70;;;17.00;;
76807;SDS011;65758;45.458;11.062;2023-02-03T02:21:11;36.70;;;20.40;;
76807;SDS011;65758;45.458;11.062;2023-02-03T02:26:50;41.20;;;20.40;;
76807;SDS011;65758;45.458;11.062;2023-02-03T02:34:56;33.00;;;18.80;;
76807;SDS011;65758;45.458;11.062;2023-02-03T02:40:36;34.70;;;19.70;;
76807;SDS011;65758;45.458;11.062;2023-02-03T02:43:07;33.50;;;18.70;;
76807;SDS011;65758;45.458;11.062;2023-02-03T02:45:49;38.30;;;19.50;;
76807;SDS011;65758;45.458;11.062;2023-02-03T02:48:36;37.40;;;19.40;;
76807;SDS011;65758;45.458;11.062;2023-02-03T02:51:05;35.30;;;19.60;;
76807;SDS011;65758;45.458;11.062;2023-02-03T02:53:36;42.30;;;21.10;;
76807;SDS011;65758;45.458;11.062;2023-02-03T02:56:08;42.30;;;20.80;;
76807;SDS011;65758;45.458;11.062;2023-02-03T02:58:38;43.10;;;22.10;;
76807;SDS011;65758;45.458;11.062;2023-02-03T03:01:08;40.10;;;22.20;;
76807;SDS011;65758;45.458;11.062;2023-02-03T03:03:36;37.00;;;21.70;;
76807;SDS011;65758;45.458;11.062;2023-02-03T03:06:07;44.70;;;22.00;;
76807;SDS011;65758;45.458;11.062;2023-02-03T03:08:42;34.70;;;20.30;;
76807;SDS011;65758;45.458;11.062;2023-02-03T03:11:17;35.30;;;19.20;;
76807;SDS011;65758;45.458;11.062;2023-02-03T03:13:47;36.10;;;20.40;;
76807;SDS011;65758;45.458;11.062;2023-02-03T03:16:17;41.00;;;21.10;;
76807;SDS011;65758;45.458;11.062;2023-02-03T03:18:50;42.40;;;21.30;;
76807;SDS011;65758;45.458;11.062;2023-02-03T03:21:23;38.80;;;21.70;;
76807;SDS011;65758;45.458;11.062;2023-02-03T03:23:53;40.70;;;21.20;;
76807;SDS011;65758;45.458;11.062;2023-02-03T03:26:29;39.50;;;21.10;;
76807;SDS011;65758;45.458;11.062;2023-02-03T03:29:13;36.80;;;21.40;;
76807;SDS011;65758;45.458;11.062;2023-02-03T03:31:45;34.00;;;19.80;;
76807;SDS011;65758;45.458;11.062;2023-02-03T03:34:13;35.90;;;20.10;;
76807;SDS011;65758;45.458;11.062;2023-02-03T03:36:43;40.80;;;22.90;;
76807;SDS011;65758;45.458;11.062;2023-02-03T03:39:34;38.50;;;21.40;;
76807;SDS011;65758;45.458;11.062;2023-02-03T03:47:38;40.60;;;24.00;;
76807;SDS011;65758;45.458;11.062;2023-02-03T03:50:26;50.70;;;23.60;;
76807;SDS011;65758;45.458;11.062;2023-02-03T03:52:57;49.00;;;25.10;;
76807;SDS011;65758;45.458;11.062;2023-02-03T03:55:28;48.00;;;26.20;;
76807;SDS011;65758;45.458;11.062;2023-02-03T03:57:58;48.00;;;24.90;;
76807;SDS011;65758;45.458;11.062;2023-02-03T04:00:29;45.30;;;25.40;;
76807;SDS011;65758;45.458;11.062;2023-02-03T04:03:00;46.70;;;25.70;;
76807;SDS011;65758;45.458;11.062;2023-02-03T04:05:37;40.70;;;23.20;;
76807;SDS011;65758;45.458;11.062;2023-02-03T04:08:05;43.30;;;23.00;;
76807;SDS011;65758;45.458;11.062;2023-02-03T04:10:36;40.70;;;22.50;;
76807;SDS011;65758;45.458;11.062;2023-02-03T04:15:32;50.00;;;25.40;;
76807;SDS011;65758;45.458;11.062;2023-02-03T04:18:00;47.10;;;26.20;;
76807;SDS011;65758;45.458;11.062;2023-02-03T04:20:27;49.10;;;27.70;;
76807;SDS011;65758;45.458;11.062;2023-02-03T04:22:55;52.90;;;28.50;;
76807;SDS011;65758;45.458;11.062;2023-02-03T04:25:23;51.20;;;27.00;;
76807;SDS011;65758;45.458;11.062;2023-02-03T04:27:50;47.10;;;26.60;;
76807;SDS011;65758;45.458;11.062;2023-02-03T04:30:17;48.20;;;28.40;;
76807;SDS011;65758;45.458;11.062;2023-02-03T04:35:11;60.00;;;27.60;;
76807;SDS011;65758;45.458;11.062;2023-02-03T04:40:04;48.50;;;25.80;;
76807;SDS011;65758;45.458;11.062;2023-02-03T04:42:32;42.50;;;23.50;;
76807;SDS011;65758;45.458;11.062;2023-02-03T04:44:59;54.60;;;29.20;;
76807;SDS011;65758;45.458;11.062;2023-02-03T04:47:25;50.40;;;27.10;;
76807;SDS011;65758;45.458;11.062;2023-02-03T04:49:52;50.00;;;27.50;;
76807;SDS011;65758;45.458;11.062;2023-02-03T04:52:18;52.90;;;28.00;;
76807;SDS011;65758;45.458;11.062;2023-02-03T04:54:45;53.70;;;26.90;;
76807;SDS011;65758;45.458;11.062;2023-02-03T04:57:12;65.40;;;32.00;;
76807;SDS011;65758;45.458;11.062;2023-02-03T04:59:38;59.00;;;29.80;;
76807;SDS011;65758;45.458;11.062;2023-02-03T05:02:05;57.30;;;29.00;;
76807;SDS011;65758;45.458;11.062;2023-02-03T05:04:33;57.40;;;29.00;;
76807;SDS011;65758;45.458;11.062;2023-02-03T05:07:00;57.10;;;28.80;;
76807;SDS011;65758;45.458;11.062;2023-02-03T05:09:26;54.40;;;29.00;;
76807;SDS011;65758;45.458;11.062;2023-02-03T05:11:53;49.80;;;27.40;;
76807;SDS011;65758;45.458;11.062;2023-02-03T05:14:20;50.70;;;27.50;;
76807;SDS011;65758;45.458;11.062;2023-02-03T05:16:47;45.60;;;24.20;;
76807;SDS011;65758;45.458;11.062;2023-02-03T05:19:13;46.90;;;23.70;;
76807;SDS011;65758;45.458;11.062;2023-02-03T05:21:40;48.70;;;24.70;;
76807;SDS011;65758;45.458;11.062;2023-02-03T05:24:06;45.40;;;24.60;;
76807;SDS011;65758;45.458;11.062;2023-02-03T05:26:33;48.40;;;24.10;;
76807;SDS011;65758;45.458;11.062;2023-02-03T05:29:01;43.70;;;22.50;;
76807;SDS011;65758;45.458;11.062;2023-02-03T05:31:28;48.60;;;25.80;;
76807;SDS011;65758;45.458;11.062;2023-02-03T05:36:22;47.40;;;24.10;;
76807;SDS011;65758;45.458;11.062;2023-02-03T05:38:48;48.90;;;24.10;;
76807;SDS011;65758;45.458;11.062;2023-02-03T05:41:15;43.90;;;26.40;;
76807;SDS011;65758;45.458;11.062;2023-02-03T05:44:00;49.40;;;25.90;;
76807;SDS011;65758;45.458;11.062;2023-02-03T05:46:26;53.10;;;28.50;;
76807;SDS011;65758;45.458;11.062;2023-02-03T05:48:53;56.90;;;31.00;;
76807;SDS011;65758;45.458;11.062;2023-02-03T05:51:20;57.30;;;29.50;;
76807;SDS011;65758;45.458;11.062;2023-02-03T05:53:46;56.30;;;30.70;;
76807;SDS011;65758;45.458;11.062;2023-02-03T05:56:13;54.90;;;30.30;;
76807;SDS011;65758;45.458;11.062;2023-02-03T05:58:39;54.20;;;29.50;;
76807;SDS011;65758;45.458;11.062;2023-02-03T06:01:06;52.50;;;25.40;;
76807;SDS011;65758;45.458;11.062;2023-02-03T06:03:32;51.20;;;26.20;;
76807;SDS011;65758;45.458;11.062;2023-02-03T06:05:59;56.40;;;29.50;;
76807;SDS011;65758;45.458;11.062;2023-02-03T06:08:26;55.60;;;29.30;;
76807;SDS011;65758;45.458;11.062;2023-02-03T06:10:57;55.80;;;28.70;;
76807;SDS011;65758;45.458;11.062;2023-02-03T06:13:25;60.00;;;31.50;;
76807;SDS011;65758;45.458;11.062;2023-02-03T06:15:52;59.00;;;31.20;;
76807;SDS011;65758;45.458;11.062;2023-02-03T06:18:19;60.90;;;32.40;;
76807;SDS011;65758;45.458;11.062;2023-02-03T06:20:46;57.10;;;29.70;;
76807;SDS011;65758;45.458;11.062;2023-02-03T06:23:13;60.90;;;32.60;;
76807;SDS011;65758;45.458;11.062;2023-02-03T06:25:42;59.10;;;31.50;;
76807;SDS011;65758;45.458;11.062;2023-02-03T06:28:09;61.60;;;32.10;;
76807;SDS011;65758;45.458;11.062;2023-02-03T06:30:36;59.50;;;33.00;;
76807;SDS011;65758;45.458;11.062;2023-02-03T06:35:29;55.50;;;30.20;;
76807;SDS011;65758;45.458;11.062;2023-02-03T06:37:56;58.60;;;30.50;;
76807;SDS011;65758;45.458;11.062;2023-02-03T06:40:22;54.30;;;29.80;;
76807;SDS011;65758;45.458;11.062;2023-02-03T06:42:49;57.70;;;31.20;;
76807;SDS011;65758;45.458;11.062;2023-02-03T06:45:16;52.70;;;29.90;;
76807;SDS011;65758;45.458;11.062;2023-02-03T06:47:44;55.10;;;28.00;;
76807;SDS011;65758;45.458;11.062;2023-02-03T06:50:12;57.00;;;29.80;;
76807;SDS011;65758;45.458;11.062;2023-02-03T06:52:40;58.60;;;30.10;;
76807;SDS011;65758;45.458;11.062;2023-02-03T06:55:07;57.50;;;30.80;;
76807;SDS011;65758;45.458;11.062;2023-02-03T06:57:34;58.60;;;30.90;;
76807;SDS011;65758;45.458;11.062;2023-02-03T07:00:01;54.20;;;28.70;;
76807;SDS011;65758;45.458;11.062;2023-02-03T07:04:54;52.40;;;30.10;;
76807;SDS011;65758;45.458;11.062;2023-02-03T07:07:20;56.00;;;29.90;;
76807;SDS011;65758;45.458;11.062;2023-02-03T07:09:47;54.50;;;29.10;;
76807;SDS011;65758;45.458;11.062;2023-02-03T07:12:14;54.30;;;29.60;;
76807;SDS011;65758;45.458;11.062;2023-02-03T07:14:40;53.00;;;27.40;;
76807;SDS011;65758;45.458;11.062;2023-02-03T07:17:07;56.90;;;30.30;;
76807;SDS011;65758;45.458;11.062;2023-02-03T07:19:34;52.60;;;28.10;;
76807;SDS011;65758;45.458;11.062;2023-02-03T07:22:00;61.50;;;32.80;;
76807;SDS011;65758;45.458;11.062;2023-02-03T07:24:27;60.10;;;32.90;;
76807;SDS011;65758;45.458;11.062;2023-02-03T07:26:53;59.60;;;30.70;;
76807;SDS011;65758;45.458;11.062;2023-02-03T07:29:20;55.60;;;30.80;;
76807;SDS011;65758;45.458;11.062;2023-02-03T07:31:46;60.20;;;31.40;;
76807;SDS011;65758;45.458;11.062;2023-02-03T07:36:40;60.40;;;29.30;;
76807;SDS011;65758;45.458;11.062;2023-02-03T07:39:07;60.60;;;31.60;;
76807;SDS011;65758;45.458;11.062;2023-02-03T07:41:33;58.90;;;30.60;;
76807;SDS011;65758;45.458;11.062;2023-02-03T07:44:00;61.00;;;31.90;;
76807;SDS011;65758;45.458;11.062;2023-02-03T07:46:27;61.60;;;30.30;;
76807;SDS011;65758;45.458;11.062;2023-02-03T07:48:53;61.20;;;31.50;;
76807;SDS011;65758;45.458;11.062;2023-02-03T07:51:20;70.50;;;33.40;;
76807;SDS011;65758;45.458;11.062;2023-02-03T07:53:47;78.40;;;42.50;;
76807;SDS011;65758;45.458;11.062;2023-02-03T07:56:13;82.30;;;39.70;;
76807;SDS011;65758;45.458;11.062;2023-02-03T07:58:40;67.30;;;37.10;;
76807;SDS011;65758;45.458;11.062;2023-02-03T08:01:14;67.80;;;37.60;;
76807;SDS011;65758;45.458;11.062;2023-02-03T08:03:42;66.60;;;35.60;;
76807;SDS011;65758;45.458;11.062;2023-02-03T08:06:09;66.70;;;38.00;;
76807;SDS011;65758;45.458;11.062;2023-02-03T08:08:36;70.60;;;36.60;;
76807;SDS011;65758;45.458;11.062;2023-02-03T08:11:02;65.90;;;34.40;;
76807;SDS011;65758;45.458;11.062;2023-02-03T08:15:56;70.80;;;34.80;;
76807;SDS011;65758;45.458;11.062;2023-02-03T08:22:17;67.20;;;35.60;;
76807;SDS011;65758;45.458;11.062;2023-02-03T08:24:45;66.80;;;37.00;;
76807;SDS011;65758;45.458;11.062;2023-02-03T08:27:12;73.40;;;37.30;;
76807;SDS011;65758;45.458;11.062;2023-02-03T08:29:44;69.90;;;37.70;;
76807;SDS011;65758;45.458;11.062;2023-02-03T08:32:12;68.30;;;36.10;;
76807;SDS011;65758;45.458;11.062;2023-02-03T08:34:42;72.00;;;37.80;;
76807;SDS011;65758;45.458;11.062;2023-02-03T08:37:09;71.30;;;39.10;;
76807;SDS011;65758;45.458;11.062;2023-02-03T08:39:38;73.40;;;40.10;;
76807;SDS011;65758;45.458;11.062;2023-02-03T08:42:05;72.60;;;38.80;;
76807;SDS011;65758;45.458;11.062;2023-02-03T08:44:33;72.20;;;39.00;;
76807;SDS011;65758;45.458;11.062;2023-02-03T08:47:00;77.40;;;39.60;;
76807;SDS011;65758;45.458;11.062;2023-02-03T08:49:28;77.10;;;40.50;;
76807;SDS011;65758;45.458;11.062;2023-02-03T08:51:56;80.40;;;42.60;;
76807;SDS011;65758;45.458;11.062;2023-02-03T08:58:31;77.40;;;41.30;;
76807;SDS011;65758;45.458;11.062;2023-02-03T09:04:52;72.90;;;40.10;;
76807;SDS011;65758;45.458;11.062;2023-02-03T09:07:19;75.40;;;41.60;;
76807;SDS011;65758;45.458;11.062;2023-02-03T09:09:47;78.00;;;41.90;;
76807;SDS011;65758;45.458;11.062;2023-02-03T09:19:00;69.00;;;36.70;;
76807;SDS011;65758;45.458;11.062;2023-02-03T09:25:48;76.50;;;40.40;;
76807;SDS011;65758;45.458;11.062;2023-02-03T09:30:41;76.40;;;42.90;;
76807;SDS011;65758;45.458;11.062;2023-02-03T09:33:08;73.20;;;40.50;;
76807;SDS011;65758;45.458;11.062;2023-02-03T09:35:35;67.30;;;38.50;;
76807;SDS011;65758;45.458;11.062;2023-02-03T09:38:01;71.90;;;41.10;;
76807;SDS011;65758;45.458;11.062;2023-02-03T09:49:54;75.00;;;42.10;;
76807;SDS011;65758;45.458;11.062;2023-02-03T09:52:27;79.40;;;44.40;;
76807;SDS011;65758;45.458;11.062;2023-02-03T09:59:18;90.50;;;45.30;;
76807;SDS011;65758;45.458;11.062;2023-02-03T10:04:34;92.60;;;48.50;;
76807;SDS011;65758;45.458;11.062;2023-02-03T10:07:08;91.50;;;48.60;;
76807;SDS011;65758;45.458;11.062;2023-02-03T10:09:48;92.30;;;49.70;;
76807;SDS011;65758;45.458;11.062;2023-02-03T10:17:53;96.80;;;49.80;;
76807;SDS011;65758;45.458;11.062;2023-02-03T10:20:33;96.70;;;48.70;;
76807;SDS011;65758;45.458;11.062;2023-02-03T10:25:41;88.90;;;46.90;;
76807;SDS011;65758;45.458;11.062;2023-02-03T10:32:38;93.40;;;49.60;;
76807;SDS011;65758;45.458;11.062;2023-02-03T10:35:10;96.60;;;50.60;;
76807;SDS011;65758;45.458;11.062;2023-02-03T10:41:58;95.30;;;48.30;;
76807;SDS011;65758;45.458;11.062;2023-02-03T10:44:31;100.70;;;52.90;;
76807;SDS011;65758;45.458;11.062;2023-02-03T10:47:12;101.80;;;54.30;;
76807;SDS011;65758;45.458;11.062;2023-02-03T10:49:51;98.90;;;49.60;;
76807;SDS011;65758;45.458;11.062;2023-02-03T10:52:26;113.70;;;58.70;;
76807;SDS011;65758;45.458;11.062;2023-02-03T10:59:26;99.10;;;50.50;;
76807;SDS011;65758;45.458;11.062;2023-02-03T11:01:56;109.00;;;54.20;;
76807;SDS011;65758;45.458;11.062;2023-02-03T11:04:24;109.30;;;53.50;;
76807;SDS011;65758;45.458;11.062;2023-02-03T11:07:00;107.80;;;53.20;;
76807;SDS011;65758;45.458;11.062;2023-02-03T11:14:22;105.50;;;56.00;;
76807;SDS011;65758;45.458;11.062;2023-02-03T11:16:42;104.00;;;52.70;;
76807;SDS011;65758;45.458;11.062;2023-02-03T11:21:45;110.60;;;57.00;;
76807;SDS011;65758;45.458;11.062;2023-02-03T11:24:22;109.10;;;54.10;;
76807;SDS011;65758;45.458;11.062;2023-02-03T11:27:02;109.00;;;54.00;;
76807;SDS011;65758;45.458;11.062;2023-02-03T11:29:45;110.00;;;55.80;;
76807;SDS011;65758;45.458;11.062;2023-02-03T11:32:18;111.80;;;57.40;;
76807;SDS011;65758;45.458;11.062;2023-02-03T11:34:56;110.30;;;57.40;;
76807;SDS011;65758;45.458;11.062;2023-02-03T11:37:33;108.60;;;56.00;;
76807;SDS011;65758;45.458;11.062;2023-02-03T11:44:30;112.40;;;57.50;;
76807;SDS011;65758;45.458;11.062;2023-02-03T11:47:03;106.10;;;52.40;;
76807;SDS011;65758;45.458;11.062;2023-02-03T11:59:13;99.60;;;51.20;;
76807;SDS011;65758;45.458;11.062;2023-02-03T12:04:57;111.70;;;58.20;;
76807;SDS011;65758;45.458;11.062;2023-02-03T12:23:00;99.20;;;48.30;;
76807;SDS011;65758;45.458;11.062;2023-02-03T12:29:44;103.90;;;49.60;;
76807;SDS011;65758;45.458;11.062;2023-02-03T12:35:14;111.20;;;54.60;;
76807;SDS011;65758;45.458;11.062;2023-02-03T12:38:02;114.10;;;55.50;;
76807;SDS011;65758;45.458;11.062;2023-02-03T12:40:40;108.50;;;52.70;;
76807;SDS011;65758;45.458;11.062;2023-02-03T12:50:28;108.10;;;54.40;;
76807;SDS011;65758;45.458;11.062;2023-02-03T12:53:01;113.40;;;57.50;;
76807;SDS011;65758;45.458;11.062;2023-02-03T12:55:36;123.50;;;59.80;;
76807;SDS011;65758;45.458;11.062;2023-02-03T12:58:09;115.20;;;54.40;;
76807;SDS011;65758;45.458;11.062;2023-02-03T13:00:44;114.50;;;59.40;;
76807;SDS011;65758;45.458;11.062;2023-02-03T13:06:15;124.70;;;58.10;;
76807;SDS011;65758;45.458;11.062;2023-02-03T13:08:50;121.30;;;61.10;;
76807;SDS011;65758;45.458;11.062;2023-02-03T13:11:26;118.20;;;58.40;;
76807;SDS011;65758;45.458;11.062;2023-02-03T13:20:52;122.50;;;62.90;;
76807;SDS011;65758;45.458;11.062;2023-02-03T13:33:27;108.30;;;55.60;;
76807;SDS011;65758;45.458;11.062;2023-02-03T13:44:45;116.70;;;57.30;;
76807;SDS011;65758;45.458;11.062;2023-02-03T13:47:21;115.80;;;60.30;;
76807;SDS011;65758;45.458;11.062;2023-02-03T13:49:52;114.70;;;58.20;;
76807;SDS011;65758;45.458;11.062;2023-02-03T13:52:26;114.20;;;56.90;;
76807;SDS011;65758;45.458;11.062;2023-02-03T13:54:57;109.10;;;55.30;;
76807;SDS011;65758;45.458;11.062;2023-02-03T13:57:30;119.40;;;58.30;;
76807;SDS011;65758;45.458;11.062;2023-02-03T14:00:06;127.10;;;64.90;;
76807;SDS011;65758;45.458;11.062;2023-02-03T14:05:50;119.40;;;61.30;;
76807;SDS011;65758;45.458;11.062;2023-02-03T14:16:35;119.30;;;57.30;;
76807;SDS011;65758;45.458;11.062;2023-02-03T14:19:03;119.20;;;58.60;;
76807;SDS011;65758;45.458;11.062;2023-02-03T14:21:45;116.00;;;62.30;;
76807;SDS011;65758;45.458;11.062;2023-02-03T14:24:13;123.20;;;61.40;;
76807;SDS011;65758;45.458;11.062;2023-02-03T14:26:42;112.40;;;55.20;;
76807;SDS011;65758;45.458;11.062;2023-02-03T14:41:53;116.40;;;57.50;;
76807;SDS011;65758;45.458;11.062;2023-02-03T14:50:37;117.70;;;57.40;;
76807;SDS011;65758;45.458;11.062;2023-02-03T14:55:56;113.10;;;54.20;;
76807;SDS011;65758;45.458;11.062;2023-02-03T14:58:56;125.50;;;62.20;;
76807;SDS011;65758;45.458;11.062;2023-02-03T15:06:40;124.80;;;60.70;;
76807;SDS011;65758;45.458;11.062;2023-02-03T15:12:17;115.30;;;58.80;;
76807;SDS011;65758;45.458;11.062;2023-02-03T15:14:45;119.80;;;60.50;;
76807;SDS011;65758;45.458;11.062;2023-02-03T15:17:17;131.40;;;64.20;;
76807;SDS011;65758;45.458;11.062;2023-02-03T15:19:52;124.50;;;60.00;;
76807;SDS011;65758;45.458;11.062;2023-02-03T15:22:26;134.80;;;63.50;;
76807;SDS011;65758;45.458;11.062;2023-02-03T15:24:59;134.30;;;62.10;;
76807;SDS011;65758;45.458;11.062;2023-02-03T15:27:30;122.90;;;61.60;;
76807;SDS011;65758;45.458;11.062;2023-02-03T15:30:12;129.20;;;61.30;;
76807;SDS011;65758;45.458;11.062;2023-02-03T15:32:42;129.60;;;65.30;;
76807;SDS011;65758;45.458;11.062;2023-02-03T15:35:18;133.50;;;64.30;;
76807;SDS011;65758;45.458;11.062;2023-02-03T15:37:50;121.40;;;60.50;;
76807;SDS011;65758;45.458;11.062;2023-02-03T15:40:21;133.40;;;64.70;;
76807;SDS011;65758;45.458;11.062;2023-02-03T15:45:28;130.30;;;62.80;;
76807;SDS011;65758;45.458;11.062;2023-02-03T15:48:02;127.20;;;64.00;;
76807;SDS011;65758;45.458;11.062;2023-02-03T15:50:31;135.80;;;66.80;;
76807;SDS011;65758;45.458;11.062;2023-02-03T15:53:09;134.00;;;64.40;;
76807;SDS011;65758;45.458;11.062;2023-02-03T15:55:44;132.20;;;66.00;;
76807;SDS011;65758;45.458;11.062;2023-02-03T15:58:17;134.90;;;65.10;;
76807;SDS011;65758;45.458;11.062;2023-02-03T16:00:48;124.80;;;61.40;;
76807;SDS011;65758;45.458;11.062;2023-02-03T16:03:18;136.80;;;64.90;;
76807;SDS011;65758;45.458;11.062;2023-02-03T16:05:52;127.80;;;62.30;;
76807;SDS011;65758;45.458;11.062;2023-02-03T16:08:26;132.90;;;65.00;;
76807;SDS011;65758;45.458;11.062;2023-02-03T16:11:27;119.10;;;56.30;;
76807;SDS011;65758;45.458;11.062;2023-02-03T16:19:30;118.90;;;60.10;;
76807;SDS011;65758;45.458;11.062;2023-02-03T16:22:03;122.40;;;60.90;;
76807;SDS011;65758;45.458;11.062;2023-02-03T16:36:10;118.50;;;59.20;;
76807;SDS011;65758;45.458;11.062;2023-02-03T16:38:57;109.00;;;53.40;;
76807;SDS011;65758;45.458;11.062;2023-02-03T16:41:46;118.10;;;57.40;;
76807;SDS011;65758;45.458;11.062;2023-02-03T16:48:45;124.10;;;61.10;;
76807;SDS011;65758;45.458;11.062;2023-02-03T16:51:33;124.00;;;57.20;;
76807;SDS011;65758;45.458;11.062;2023-02-03T16:54:04;114.50;;;57.70;;
76807;SDS011;65758;45.458;11.062;2023-02-03T16:56:32;115.20;;;58.90;;
76807;SDS011;65758;45.458;11.062;2023-02-03T17:01:25;115.70;;;57.00;;
76807;SDS011;65758;45.458;11.062;2023-02-03T17:03:52;119.80;;;58.70;;
76807;SDS011;65758;45.458;11.062;2023-02-03T17:08:46;113.70;;;52.20;;
76807;SDS011;65758;45.458;11.062;2023-02-03T17:13:41;130.20;;;57.90;;
76807;SDS011;65758;45.458;11.062;2023-02-03T17:16:09;124.00;;;55.70;;
76807;SDS011;65758;45.458;11.062;2023-02-03T17:18:39;122.00;;;59.90;;
76807;SDS011;65758;45.458;11.062;2023-02-03T17:21:07;120.80;;;60.20;;
76807;SDS011;65758;45.458;11.062;2023-02-03T17:23:36;160.50;;;59.90;;
76807;SDS011;65758;45.458;11.062;2023-02-03T17:30:30;130.90;;;61.20;;
76807;SDS011;65758;45.458;11.062;2023-02-03T17:37:32;127.00;;;59.30;;
76807;SDS011;65758;45.458;11.062;2023-02-03T17:39:59;125.10;;;61.20;;
76807;SDS011;65758;45.458;11.062;2023-02-03T17:42:44;131.80;;;61.60;;
76807;SDS011;65758;45.458;11.062;2023-02-03T17:45:28;128.10;;;58.60;;
76807;SDS011;65758;45.458;11.062;2023-02-03T17:48:13;126.40;;;61.80;;
76807;SDS011;65758;45.458;11.062;2023-02-03T17:51:04;123.10;;;58.20;;
76807;SDS011;65758;45.458;11.062;2023-02-03T17:57:59;119.10;;;57.00;;
76807;SDS011;65758;45.458;11.062;2023-02-03T18:00:26;119.50;;;57.50;;
76807;SDS011;65758;45.458;11.062;2023-02-03T18:02:53;118.00;;;57.70;;
76807;SDS011;65758;45.458;11.062;2023-02-03T18:05:21;121.80;;;60.20;;
76807;SDS011;65758;45.458;11.062;2023-02-03T18:07:48;122.10;;;59.40;;
76807;SDS011;65758;45.458;11.062;2023-02-03T18:14:42;119.20;;;57.20;;
76807;SDS011;65758;45.458;11.062;2023-02-03T18:21:22;123.00;;;57.30;;
76807;SDS011;65758;45.458;11.062;2023-02-03T18:23:50;123.40;;;59.30;;
76807;SDS011;65758;45.458;11.062;2023-02-03T18:26:22;127.80;;;64.60;;
76807;SDS011;65758;45.458;11.062;2023-02-03T18:31:19;108.40;;;52.20;;
76807;SDS011;65758;45.458;11.062;2023-02-03T18:33:46;120.00;;;58.50;;
76807;SDS011;65758;45.458;11.062;2023-02-03T18:36:14;222.80;;;114.40;;
76807;SDS011;65758;45.458;11.062;2023-02-03T18:38:42;128.00;;;63.70;;
76807;SDS011;65758;45.458;11.062;2023-02-03T18:41:12;125.20;;;60.50;;
76807;SDS011;65758;45.458;11.062;2023-02-03T18:47:48;110.20;;;52.30;;
76807;SDS011;65758;45.458;11.062;2023-02-03T18:50:14;119.60;;;57.80;;
76807;SDS011;65758;45.458;11.062;2023-02-03T18:52:42;127.70;;;65.70;;
76807;SDS011;65758;45.458;11.062;2023-02-03T18:55:08;125.90;;;60.10;;
76807;SDS011;65758;45.458;11.062;2023-02-03T18:57:35;122.20;;;59.20;;
76807;SDS011;65758;45.458;11.062;2023-02-03T19:00:02;124.50;;;63.30;;
76807;SDS011;65758;45.458;11.062;2023-02-03T19:02:29;119.80;;;60.40;;
76807;SDS011;65758;45.458;11.062;2023-02-03T19:04:56;121.80;;;60.80;;
76807;SDS011;65758;45.458;11.062;2023-02-03T19:07:23;124.40;;;59.70;;
76807;SDS011;65758;45.458;11.062;2023-02-03T19:09:49;128.00;;;61.80;;
76807;SDS011;65758;45.458;11.062;2023-02-03T19:16:30;120.10;;;56.80;;
76807;SDS011;65758;45.458;11.062;2023-02-03T19:18:57;116.70;;;59.50;;
76807;SDS011;65758;45.458;11.062;2023-02-03T19:21:23;130.30;;;61.20;;
76807;SDS011;65758;45.458;11.062;2023-02-03T19:26:17;126.50;;;59.10;;